createdAt,value
2024-03-12T00:01:10.502Z,7.57
2024-03-12T00:03:44.817Z,7.59
2024-03-12T00:06:12.184Z,7.57
2024-03-12T00:08:41.190Z,7.49
2024-03-12T00:11:09.536Z,7.53
2024-03-12T00:13:36.563Z,7.52
2024-03-12T00:16:04.076Z,7.55
2024-03-12T00:18:34.823Z,7.55
2024-03-12T00:21:04.880Z,7.51
2024-03-12T00:23:31.722Z,7.51
2024-03-12T00:25:58.499Z,7.55
2024-03-12T00:28:25.359Z,7.54
2024-03-12T00:30:52.276Z,7.54
2024-03-12T00:33:20.104Z,7.47
2024-03-12T00:35:47.598Z,7.48
2024-03-12T00:38:14.461Z,7.46
2024-03-12T00:40:44.137Z,7.39
2024-03-12T00:43:11.316Z,7.43
2024-03-12T00:45:39.073Z,7.33
2024-03-12T00:48:11.431Z,7.31
2024-03-12T00:50:39.258Z,7.26
2024-03-12T00:53:06.489Z,7.23
2024-03-12T00:55:33.539Z,7.24
2024-03-12T00:58:00.824Z,7.17
2024-03-12T01:00:30.359Z,7.11
2024-03-12T01:02:59.734Z,7.07
2024-03-12T01:05:27.547Z,7.03
2024-03-12T01:07:55.077Z,7.06
2024-03-12T01:10:22.701Z,7.18
2024-03-12T01:12:50.432Z,7.13
2024-03-12T01:15:19.619Z,7.07
2024-03-12T01:17:47.458Z,7.08
2024-03-12T01:20:17.897Z,7.16
2024-03-12T01:22:45.191Z,7.15
2024-03-12T01:25:12.017Z,7.24
2024-03-12T01:27:39.599Z,7.26
2024-03-12T01:30:08.393Z,7.26
2024-03-12T01:32:40.315Z,7.24
2024-03-12T01:35:10.125Z,7.16
2024-03-12T01:37:38.005Z,7.12
2024-03-12T01:40:21.163Z,7.22
2024-03-12T01:42:53.076Z,7.17
2024-03-12T01:45:23.734Z,7.18
2024-03-12T01:47:55.791Z,7.21
2024-03-12T01:50:23.391Z,7.19
2024-03-12T01:52:52.189Z,7.21
2024-03-12T01:55:20.130Z,7.19
2024-03-12T01:57:47.348Z,7.17
2024-03-12T02:00:15.013Z,7.14
2024-03-12T02:02:43.175Z,7.15
2024-03-12T02:05:14.506Z,7.14
2024-03-12T02:07:41.328Z,7.08
2024-03-12T02:10:09.580Z,7.08
2024-03-12T02:12:36.814Z,6.96
2024-03-12T02:15:04.914Z,6.89
2024-03-12T02:17:31.806Z,7.00
2024-03-12T02:19:59.288Z,7.03
2024-03-12T02:22:26.673Z,6.83
2024-03-12T02:24:54.255Z,6.76
2024-03-12T02:27:21.194Z,6.66
2024-03-12T02:29:48.957Z,6.55
2024-03-12T02:32:15.782Z,6.46
2024-03-12T02:34:42.923Z,6.38
2024-03-12T02:37:09.686Z,6.23
2024-03-12T02:39:36.732Z,6.10
2024-03-12T02:42:03.547Z,6.06
2024-03-12T02:44:30.409Z,6.03
2024-03-12T02:46:57.140Z,6.09
2024-03-12T02:49:24.437Z,6.08
2024-03-12T02:51:51.361Z,6.17
2024-03-12T02:54:18.599Z,6.21
2024-03-12T02:56:45.343Z,6.31
2024-03-12T02:59:13.441Z,6.42
2024-03-12T03:01:40.613Z,6.46
2024-03-12T03:04:08.110Z,6.46
2024-03-12T03:06:34.875Z,6.51
2024-03-12T03:09:02.079Z,6.60
2024-03-12T03:11:29.011Z,6.69
2024-03-12T03:13:56.586Z,6.70
2024-03-12T03:16:23.787Z,6.71
2024-03-12T03:18:50.609Z,6.74
2024-03-12T03:21:17.361Z,6.81
2024-03-12T03:23:44.111Z,6.81
2024-03-12T03:26:10.889Z,6.79
2024-03-12T03:28:38.242Z,6.76
2024-03-12T03:31:05.298Z,6.83
2024-03-12T03:33:32.943Z,6.81
2024-03-12T03:35:59.818Z,6.80
2024-03-12T03:38:29.340Z,6.85
2024-03-12T03:40:56.172Z,6.87
2024-03-12T03:43:22.991Z,6.88
2024-03-12T03:45:49.766Z,6.83
2024-03-12T03:48:16.564Z,6.85
2024-03-12T03:50:43.300Z,6.73
2024-03-12T03:53:10.048Z,6.79
2024-03-12T03:55:36.872Z,6.79
2024-03-12T03:58:03.784Z,6.68
2024-03-12T04:00:33.868Z,6.75
2024-03-12T04:03:00.837Z,6.72
2024-03-12T04:05:28.454Z,6.72
2024-03-12T04:07:55.760Z,6.70
2024-03-12T04:10:23.704Z,6.78
2024-03-12T04:12:51.293Z,6.80
2024-03-12T04:15:19.532Z,6.79
2024-03-12T04:17:46.465Z,6.83
2024-03-12T04:20:13.633Z,6.86
2024-03-12T04:22:41.175Z,6.87
2024-03-12T04:25:09.109Z,6.82
2024-03-12T04:27:39.217Z,6.84
2024-03-12T04:30:10.750Z,6.80
2024-03-12T04:32:38.335Z,6.80
2024-03-12T04:35:14.048Z,6.86
2024-03-12T04:37:41.465Z,6.86
2024-03-12T04:40:09.251Z,6.86
2024-03-12T04:42:37.101Z,6.90
2024-03-12T04:45:06.095Z,6.87
2024-03-12T04:47:33.526Z,6.90
2024-03-12T04:50:00.654Z,6.89
2024-03-12T04:52:27.811Z,6.75
2024-03-12T04:54:54.653Z,6.64
2024-03-12T04:57:21.732Z,6.56
2024-03-12T04:59:49.217Z,6.53
2024-03-12T05:02:16.819Z,6.48
2024-03-12T05:04:43.661Z,6.46
2024-03-12T05:07:10.846Z,6.42
2024-03-12T05:09:37.587Z,6.31
2024-03-12T05:12:04.642Z,6.23
2024-03-12T05:14:31.380Z,6.10
2024-03-12T05:17:00.656Z,6.06
2024-03-12T05:19:27.462Z,5.91
2024-03-12T05:24:23.239Z,5.72
2024-03-12T05:26:51.397Z,5.86
2024-03-12T05:29:22.235Z,5.87
2024-03-12T05:31:49.504Z,5.77
2024-03-12T05:34:28.833Z,5.55
2024-03-12T05:37:05.387Z,5.42
2024-03-12T05:39:49.739Z,5.56
2024-03-12T05:42:35.557Z,5.64
2024-03-12T05:45:21.809Z,5.73
2024-03-12T05:48:07.402Z,5.77
2024-03-12T05:50:34.676Z,5.82
2024-03-12T05:53:02.176Z,5.85
2024-03-12T05:55:29.515Z,5.93
2024-03-12T05:57:57.134Z,5.96
2024-03-12T06:00:24.944Z,6.03
2024-03-12T06:02:52.254Z,6.09
2024-03-12T06:05:19.137Z,6.20
2024-03-12T06:07:46.118Z,6.17
2024-03-12T06:10:13.429Z,6.19
2024-03-12T06:12:40.562Z,6.33
2024-03-12T06:15:07.875Z,6.43
2024-03-12T06:17:35.737Z,6.53
2024-03-12T06:20:02.703Z,6.53
2024-03-12T06:22:29.542Z,6.55
2024-03-12T06:24:56.643Z,6.62
2024-03-12T06:27:24.431Z,6.75
2024-03-12T06:29:53.194Z,6.68
2024-03-12T06:32:23.395Z,6.77
2024-03-12T06:34:50.830Z,6.92
2024-03-12T06:37:18.657Z,7.02
2024-03-12T06:39:46.367Z,7.06
2024-03-12T06:42:14.145Z,7.08
2024-03-12T06:44:43.948Z,7.20
2024-03-12T06:47:11.590Z,7.13
2024-03-12T06:49:40.317Z,7.17
2024-03-12T06:52:08.308Z,7.19
2024-03-12T06:54:36.736Z,7.21
2024-03-12T06:57:05.797Z,7.22
2024-03-12T06:59:34.083Z,7.24
2024-03-12T07:02:07.628Z,7.26
2024-03-12T07:04:44.939Z,7.31
2024-03-12T07:07:15.312Z,7.34
2024-03-12T07:09:44.084Z,7.38
2024-03-12T07:12:11.645Z,7.44
2024-03-12T07:14:47.051Z,7.36
2024-03-12T07:17:15.941Z,7.32
2024-03-12T07:19:44.465Z,7.32
2024-03-12T07:22:12.743Z,7.44
2024-03-12T07:24:41.075Z,7.37
2024-03-12T07:27:08.877Z,7.35
2024-03-12T07:29:35.667Z,7.39
2024-03-12T07:32:04.981Z,7.42
2024-03-12T07:34:32.654Z,7.39
2024-03-12T07:37:01.011Z,7.45
2024-03-12T07:39:37.865Z,7.55
2024-03-12T07:42:15.059Z,7.54
2024-03-12T07:44:42.753Z,7.45
2024-03-12T07:47:11.720Z,7.57
2024-03-12T07:49:38.670Z,7.50
2024-03-12T07:52:10.815Z,7.44
2024-03-12T07:54:37.889Z,7.43
2024-03-12T07:57:06.671Z,7.32
2024-03-12T07:59:33.758Z,7.34
2024-03-12T08:02:04.899Z,7.33
2024-03-12T08:04:32.127Z,7.39
2024-03-12T08:06:59.819Z,7.45
2024-03-12T08:09:26.750Z,7.42
2024-03-12T08:11:53.900Z,7.45
2024-03-12T08:14:21.001Z,7.50
2024-03-12T08:16:50.833Z,7.41
2024-03-12T08:19:18.281Z,7.33
2024-03-12T08:21:45.693Z,7.36
2024-03-12T08:24:12.828Z,7.31
2024-03-12T08:26:40.060Z,7.26
2024-03-12T08:29:06.908Z,7.30
2024-03-12T08:31:38.872Z,7.35
2024-03-12T08:34:17.418Z,7.35
2024-03-12T08:36:45.053Z,7.50
2024-03-12T08:39:14.790Z,7.43
2024-03-12T08:41:42.230Z,7.46
2024-03-12T08:44:09.604Z,7.42
2024-03-12T08:46:36.588Z,7.56
2024-03-12T08:49:07.163Z,7.48
2024-03-12T08:51:38.209Z,7.63
2024-03-12T08:54:05.666Z,7.74
2024-03-12T08:56:34.877Z,7.75
2024-03-12T08:59:01.714Z,7.73
2024-03-12T09:01:28.972Z,7.72
2024-03-12T09:03:56.345Z,7.70
2024-03-12T09:06:23.426Z,7.68
2024-03-12T09:08:51.973Z,7.71
2024-03-12T09:11:19.525Z,7.71
2024-03-12T09:13:47.112Z,7.70
2024-03-12T09:16:17.824Z,7.72
2024-03-12T09:18:45.298Z,7.94
2024-03-12T09:21:13.958Z,8.12
2024-03-12T09:23:56.356Z,8.22
2024-03-12T09:26:29.616Z,8.30
2024-03-12T09:28:57.182Z,8.33
2024-03-12T09:31:24.926Z,8.48
2024-03-12T09:33:53.772Z,8.48
2024-03-12T09:36:22.418Z,8.56
2024-03-12T09:38:52.230Z,8.52
2024-03-12T09:41:21.604Z,8.59
2024-03-12T09:43:48.826Z,8.56
2024-03-12T09:46:18.134Z,8.51
2024-03-12T09:48:46.577Z,8.44
2024-03-12T09:51:14.327Z,8.39
2024-03-12T09:53:43.779Z,8.39
2024-03-12T09:56:16.736Z,8.27
2024-03-12T09:58:44.641Z,8.25
2024-03-12T10:01:14.421Z,8.21
2024-03-12T10:03:42.241Z,8.12
2024-03-12T10:06:10.924Z,8.15
2024-03-12T10:08:38.089Z,8.20
2024-03-12T10:11:10.261Z,8.21
2024-03-12T10:13:40.224Z,8.26
2024-03-12T10:16:09.064Z,8.30
2024-03-12T10:18:36.507Z,8.37
2024-03-12T10:21:03.727Z,8.34
2024-03-12T10:23:44.596Z,8.27
2024-03-12T10:26:14.356Z,8.18
2024-03-12T10:28:41.994Z,8.28
2024-03-12T10:31:11.550Z,8.16
2024-03-12T10:33:42.116Z,8.21
2024-03-12T10:36:12.705Z,8.36
2024-03-12T10:38:41.465Z,8.25
2024-03-12T10:41:22.841Z,8.17
2024-03-12T10:43:51.442Z,8.13
2024-03-12T10:46:19.447Z,8.10
2024-03-12T10:48:48.420Z,8.04
2024-03-12T10:51:16.815Z,8.06
2024-03-12T10:53:44.734Z,8.08
2024-03-12T10:56:15.410Z,8.06
2024-03-12T10:58:47.485Z,8.09
2024-03-12T11:01:16.433Z,8.21
2024-03-12T11:03:44.416Z,8.28
2024-03-12T11:06:15.342Z,8.42
2024-03-12T11:08:45.776Z,8.54
2024-03-12T11:11:13.387Z,8.51
2024-03-12T11:13:42.332Z,8.44
2024-03-12T11:16:19.487Z,8.39
2024-03-12T11:18:47.125Z,8.37
2024-03-12T11:21:17.488Z,8.34
2024-03-12T11:23:46.824Z,8.34
2024-03-12T11:26:15.688Z,8.26
2024-03-12T11:28:50.509Z,8.27
2024-03-12T11:31:21.154Z,8.25
2024-03-12T11:33:56.060Z,8.24
2024-03-12T11:36:33.045Z,8.18
2024-03-12T11:39:06.201Z,8.19
2024-03-12T11:41:52.084Z,8.16
2024-03-12T11:44:39.447Z,8.26
2024-03-12T11:47:08.026Z,8.42
2024-03-12T11:49:34.990Z,8.59
2024-03-12T11:52:03.020Z,8.67
2024-03-12T11:54:44.546Z,8.62
2024-03-12T11:57:21.789Z,8.68
2024-03-12T11:59:49.519Z,8.57
2024-03-12T12:02:21.911Z,8.51
2024-03-12T12:04:53.204Z,8.38
2024-03-12T12:07:21.242Z,8.35
2024-03-12T12:09:48.794Z,8.26
2024-03-12T12:12:15.938Z,8.15
2024-03-12T12:14:46.598Z,8.27
2024-03-12T12:17:15.573Z,8.38
2024-03-12T12:19:43.586Z,8.47
2024-03-12T12:25:59.294Z,8.28
2024-03-12T12:28:27.217Z,8.21
2024-03-12T12:30:56.093Z,8.25
2024-03-12T12:33:25.360Z,8.13
2024-03-12T12:35:53.848Z,8.15
2024-03-12T12:38:23.220Z,8.17
2024-03-12T12:40:50.215Z,8.24
2024-03-12T12:43:21.330Z,8.20
2024-03-12T12:45:48.313Z,8.14
2024-03-12T12:48:15.896Z,8.19
2024-03-12T12:50:44.653Z,8.16
2024-03-12T12:53:11.562Z,8.16
2024-03-12T12:55:38.594Z,8.16
2024-03-12T12:58:08.191Z,8.22
2024-03-12T13:00:40.323Z,8.19
2024-03-12T13:03:18.800Z,8.26
2024-03-12T13:05:49.035Z,8.19
2024-03-12T13:08:23.499Z,8.23
2024-03-12T13:10:58.646Z,8.17
2024-03-12T13:13:29.200Z,8.07
2024-03-12T13:15:56.454Z,7.95
2024-03-12T13:18:23.222Z,7.99
2024-03-12T13:20:50.708Z,7.99
2024-03-12T13:23:20.468Z,7.97
2024-03-12T13:25:48.205Z,8.02
2024-03-12T13:28:18.473Z,7.93
2024-03-12T13:30:47.880Z,7.99
2024-03-12T13:33:15.076Z,7.97
2024-03-12T13:35:43.586Z,7.99
2024-03-12T13:38:15.632Z,8.00
2024-03-12T13:40:42.675Z,7.97
2024-03-12T13:43:12.530Z,7.98
2024-03-12T13:45:39.772Z,7.94
2024-03-12T13:48:07.453Z,7.92
2024-03-12T13:50:35.019Z,7.94
2024-03-12T13:53:02.960Z,7.94
2024-03-12T13:55:29.754Z,7.93
2024-03-12T13:57:57.845Z,7.89
2024-03-12T14:00:28.073Z,7.89
2024-03-12T14:02:55.033Z,7.92
2024-03-12T14:05:22.097Z,7.92
2024-03-12T14:07:49.525Z,7.86
2024-03-12T14:10:16.520Z,7.92
2024-03-12T14:12:43.679Z,7.84
2024-03-12T14:15:11.063Z,7.91
2024-03-12T14:17:38.053Z,7.88
2024-03-12T14:20:15.634Z,7.89
2024-03-12T14:22:45.422Z,7.88
2024-03-12T14:25:12.811Z,7.86
2024-03-12T14:27:40.465Z,7.79
2024-03-12T14:30:09.726Z,7.78
2024-03-12T14:32:37.277Z,7.76
2024-03-12T14:35:06.172Z,7.71
2024-03-12T14:37:33.672Z,7.80
2024-03-12T14:40:06.263Z,7.86
2024-03-12T14:42:34.327Z,8.00
2024-03-12T14:45:01.594Z,8.09
2024-03-12T14:47:28.513Z,8.16
2024-03-12T14:49:56.311Z,8.16
2024-03-12T14:52:23.217Z,8.18
2024-03-12T14:54:51.377Z,8.24
2024-03-12T14:57:19.753Z,8.19
2024-03-12T14:59:47.109Z,8.18
2024-03-12T15:02:17.035Z,8.23
2024-03-12T15:04:45.569Z,8.18
2024-03-12T15:07:14.548Z,8.32
2024-03-12T15:09:44.777Z,8.36
2024-03-12T15:12:11.857Z,8.37
2024-03-12T15:14:38.714Z,8.33
2024-03-12T15:17:05.909Z,8.34
2024-03-12T15:19:33.708Z,8.37
2024-03-12T15:22:09.898Z,8.39
2024-03-12T15:24:39.537Z,8.39
2024-03-12T15:27:07.473Z,8.28
2024-03-12T15:29:34.456Z,8.21
2024-03-12T15:32:01.503Z,8.12
2024-03-12T15:34:29.104Z,8.07
2024-03-12T15:36:56.205Z,8.09
2024-03-12T15:39:24.060Z,8.08
2024-03-12T15:41:51.637Z,8.04
2024-03-12T15:44:18.781Z,7.95
2024-03-12T15:46:45.841Z,7.80
2024-03-12T15:49:12.941Z,7.66
2024-03-12T15:51:43.194Z,7.60
2024-03-12T15:54:13.521Z,7.56
2024-03-12T15:56:45.471Z,7.47
2024-03-12T15:59:15.874Z,7.52
2024-03-12T16:01:46.906Z,7.48
2024-03-12T16:04:15.112Z,7.49
2024-03-12T16:06:43.261Z,7.48
2024-03-12T16:09:18.306Z,7.47
2024-03-12T16:11:45.282Z,7.41
2024-03-12T16:14:13.750Z,7.42
2024-03-12T16:16:40.935Z,7.47
2024-03-12T16:19:08.221Z,7.48
2024-03-12T16:21:38.127Z,7.46
2024-03-12T16:24:06.000Z,7.50
2024-03-12T16:26:32.791Z,7.54
2024-03-12T16:28:59.965Z,7.48
2024-03-12T16:31:26.821Z,7.53
2024-03-12T16:33:53.670Z,7.55
2024-03-12T16:36:21.626Z,7.53
2024-03-12T16:38:48.769Z,7.56
2024-03-12T16:41:15.958Z,7.52
2024-03-12T16:43:43.110Z,7.51
2024-03-12T16:46:11.023Z,7.50
2024-03-12T16:48:41.038Z,7.53
2024-03-12T16:51:08.623Z,7.54
2024-03-12T16:53:35.459Z,7.54
2024-03-12T16:56:02.472Z,7.53
2024-03-12T16:58:30.397Z,7.49
2024-03-12T17:00:59.739Z,7.52
2024-03-12T17:03:27.065Z,7.48
2024-03-12T17:05:56.128Z,7.46
2024-03-12T17:08:23.662Z,7.47
2024-03-12T17:10:50.916Z,7.47
2024-03-12T17:13:18.427Z,7.48
2024-03-12T17:15:47.032Z,7.51
2024-03-12T17:18:14.361Z,7.55
2024-03-12T17:20:41.403Z,7.52
2024-03-12T17:23:08.668Z,7.48
2024-03-12T17:25:35.805Z,7.48
2024-03-12T17:28:05.219Z,7.49
2024-03-12T17:30:32.205Z,7.43
2024-03-12T17:32:59.224Z,7.45
2024-03-12T17:35:26.340Z,7.47
2024-03-12T17:37:56.914Z,7.48
2024-03-12T17:40:25.682Z,7.51
2024-03-12T17:42:52.735Z,7.50
2024-03-12T17:45:19.699Z,7.43
2024-03-12T17:47:53.448Z,7.42
2024-03-12T17:50:21.634Z,7.45
2024-03-12T17:52:50.159Z,7.44
2024-03-12T17:55:20.651Z,7.41
2024-03-12T17:59:46.042Z,7.49
2024-03-12T18:02:15.536Z,7.49
2024-03-12T18:04:42.781Z,7.60
2024-03-12T18:07:22.313Z,7.64
2024-03-12T18:09:51.707Z,7.57
2024-03-12T18:12:18.546Z,7.60
2024-03-12T18:14:45.403Z,7.59
2024-03-12T18:17:12.417Z,7.59
